»·PEaware :: N6315K KOLS-KGJT

N6315K :: KOLS-KGJT

FLIGHT INFORMATION

Flight Status: Arrived
Operator: Privately registered:
United States
More flights under this callsign
Pilot: Bill H. (23183)
Aircraft: Unknown
(EV55)
More flights by this aircraft type
Origin: KOLS Nogales Intl
United States
Destination: KGJT Grand Junction Regl
United States
More flights between these airports :: More routes between these airports
Route: KOLS KGJT
File this flight plan on PilotEdge
Remarks: Training Flight
Altitude:
(Current/Filed)
11,500ft
Speed:
(Current/Filed)
220kts
Departed: 02-May-19 03:36 AM
Arrived: 02-May-19 06:01 AM
Distance/Time
Traveled:
476nm/2:25
Distance/Time
To Go:
Arrived

Flight Plot

Page will automatically refresh every two minutes.

Flight plan parsing failed; only flown route is shown


Map Options




Map Legend


Flown Route
Filed Route
Departure Airport
Arrival Airport
Navaid (VOR, NDB)
Fix

Horizontal Profiles

Position Reports

Time Latitude Longitude Heading Altitude Ground
Speed
02-May-19 03:27 31.418138 -110.850024 0 3889ft 0kts
02-May-19 03:28 31.418138 -110.850024 47 3889ft 0kts
02-May-19 03:29 31.418138 -110.850024 47 3889ft 0kts
02-May-19 03:30 31.418039 -110.849630 139 3890ft 5kts
02-May-19 03:31 31.415020 -110.852925 225 3868ft 18kts
02-May-19 03:32 31.411601 -110.856808 174 3839ft 6kts
02-May-19 03:33 31.411171 -110.856464 134 3839ft 4kts
02-May-19 03:34 31.411083 -110.856008 44 3842ft 0kts
02-May-19 03:35 31.422780 -110.842907 32 4170ft 100kts
02-May-19 03:36 31.451233 -110.833625 8 5014ft 132kts
02-May-19 03:37 31.488650 -110.824581 11 5995ft 140kts
02-May-19 03:38 31.527251 -110.814909 12 7004ft 144kts
02-May-19 03:39 31.566732 -110.804791 12 8010ft 146kts
02-May-19 03:40 31.606786 -110.794399 12 9011ft 148kts
02-May-19 03:41 31.647162 -110.783690 12 10009ft 149kts
02-May-19 03:42 31.687683 -110.772840 12 11002ft 148kts
02-May-19 03:43 31.729233 -110.761626 12 11524ft 172kts
02-May-19 03:44 31.781182 -110.747467 13 11514ft 203kts
02-May-19 03:45 31.837957 -110.731903 13 11511ft 211kts
02-May-19 03:46 31.894738 -110.716271 13 11507ft 207kts
02-May-19 03:47 31.950467 -110.700861 13 11509ft 204kts
02-May-19 03:48 32.005719 -110.685561 13 11509ft 204kts
02-May-19 03:49 32.060879 -110.670262 13 11509ft 204kts
02-May-19 03:50 32.115690 -110.655038 13 11509ft 204kts
02-May-19 03:51 32.171253 -110.639587 13 11509ft 204kts
02-May-19 03:52 32.226713 -110.624142 13 11509ft 204kts
02-May-19 03:53 32.281974 -110.608730 13 11509ft 204kts
02-May-19 03:54 32.337295 -110.593280 13 11509ft 204kts
02-May-19 03:55 32.392872 -110.577737 13 11509ft 204kts
02-May-19 03:56 32.448173 -110.562251 13 11509ft 204kts
02-May-19 03:57 32.503362 -110.546774 13 11509ft 204kts
02-May-19 03:58 32.558898 -110.531179 13 11510ft 205kts
02-May-19 03:59 32.614854 -110.515444 13 11509ft 205kts
02-May-19 04:00 32.670999 -110.499634 13 11509ft 205kts
02-May-19 04:01 32.726803 -110.483900 13 11509ft 205kts
02-May-19 04:02 32.782705 -110.468117 13 11509ft 205kts
02-May-19 04:03 32.838280 -110.452406 13 11509ft 205kts
02-May-19 04:04 32.893972 -110.436641 13 11509ft 205kts
02-May-19 04:05 32.949975 -110.420767 13 11509ft 205kts
02-May-19 04:06 33.005679 -110.404957 13 11509ft 205kts
02-May-19 04:07 33.058284 -110.390007 13 11509ft 205kts
02-May-19 04:08 33.113838 -110.374201 13 11509ft 205kts
02-May-19 04:09 33.169384 -110.358384 13 11509ft 205kts
02-May-19 04:10 33.225068 -110.342504 13 11509ft 205kts
02-May-19 04:11 33.280592 -110.326646 13 11509ft 205kts
02-May-19 04:12 33.335926 -110.310822 13 11509ft 204kts
02-May-19 04:13 33.391186 -110.294999 13 11509ft 204kts
02-May-19 04:14 33.446450 -110.279154 13 11509ft 204kts
02-May-19 04:15 33.501701 -110.263293 13 11509ft 204kts
02-May-19 04:16 33.556854 -110.247438 13 11509ft 204kts
02-May-19 04:17 33.612294 -110.231480 13 11510ft 205kts
02-May-19 04:18 33.667754 -110.215495 13 11510ft 205kts
02-May-19 04:19 33.723346 -110.199449 13 11509ft 205kts
02-May-19 04:20 33.778888 -110.183397 13 11509ft 205kts
02-May-19 04:21 33.832796 -110.167796 13 11509ft 205kts
02-May-19 04:22 33.888065 -110.151781 13 11509ft 204kts
02-May-19 04:23 33.940934 -110.136442 13 11510ft 205kts
02-May-19 04:24 33.996295 -110.120358 13 11509ft 205kts
02-May-19 04:25 34.051894 -110.104182 13 11509ft 205kts
02-May-19 04:26 34.107300 -110.088042 13 11509ft 204kts
02-May-19 04:27 34.162669 -110.071889 13 11509ft 204kts
02-May-19 04:28 34.214720 -110.056686 13 11510ft 205kts
02-May-19 04:29 34.264806 -110.042040 13 11509ft 205kts
02-May-19 04:30 34.318753 -110.026244 13 11509ft 205kts
02-May-19 04:31 34.374186 -110.009991 13 11509ft 205kts
02-May-19 04:32 34.429628 -109.993713 13 11509ft 205kts
02-May-19 04:33 34.484997 -109.977435 13 11510ft 205kts
02-May-19 04:34 34.540367 -109.961133 13 11509ft 205kts
02-May-19 04:35 34.595911 -109.944756 13 11509ft 205kts
02-May-19 04:36 34.651514 -109.928340 13 11509ft 205kts
02-May-19 04:37 34.706965 -109.911946 13 11509ft 205kts
02-May-19 04:38 34.762521 -109.895498 13 11509ft 205kts
02-May-19 04:39 34.815889 -109.879676 13 11509ft 205kts
02-May-19 04:40 34.871412 -109.863193 13 11509ft 205kts
02-May-19 04:41 34.926872 -109.846705 13 11509ft 206kts
02-May-19 04:42 34.982351 -109.830189 13 11510ft 205kts
02-May-19 04:43 35.037854 -109.813642 13 11509ft 206kts
02-May-19 04:44 35.093350 -109.797074 13 11509ft 205kts
02-May-19 04:45 35.148013 -109.780735 13 11509ft 205kts
02-May-19 04:46 35.203394 -109.764159 13 11509ft 205kts
02-May-19 04:47 35.258858 -109.747534 13 11510ft 205kts
02-May-19 04:48 35.314312 -109.730888 13 11509ft 205kts
02-May-19 04:49 35.369751 -109.714221 13 11509ft 205kts
02-May-19 04:50 35.425194 -109.697531 13 11510ft 205kts
02-May-19 04:51 35.480554 -109.680842 13 11510ft 205kts
02-May-19 04:52 35.536127 -109.664063 13 11509ft 205kts
02-May-19 04:53 35.590653 -109.647577 13 11509ft 206kts
02-May-19 04:54 35.646205 -109.630757 13 11510ft 205kts
02-May-19 04:55 35.701758 -109.613913 13 11509ft 206kts
02-May-19 04:56 35.757229 -109.597066 13 11509ft 205kts
02-May-19 04:57 35.812599 -109.580226 13 11510ft 205kts
02-May-19 04:58 35.867972 -109.563361 13 11510ft 205kts
02-May-19 04:59 35.923494 -109.546425 13 11509ft 205kts
02-May-19 05:00 35.978947 -109.529489 13 11510ft 205kts
02-May-19 05:01 36.033695 -109.512745 13 11509ft 205kts
02-May-19 05:02 36.089100 -109.495775 13 11510ft 205kts
02-May-19 05:03 36.144735 -109.478715 13 11509ft 205kts
02-May-19 05:04 36.200150 -109.461700 13 11509ft 205kts
02-May-19 05:06 36.255669 -109.444626 13 11510ft 205kts
02-May-19 05:07 36.311177 -109.427529 13 11509ft 205kts
02-May-19 05:08 36.366685 -109.410407 13 11509ft 205kts
02-May-19 05:09 36.422105 -109.393286 13 11509ft 205kts
02-May-19 05:10 36.477531 -109.376136 13 11509ft 205kts
02-May-19 05:11 36.533393 -109.358825 13 11510ft 205kts
02-May-19 05:12 36.589310 -109.341471 14 11509ft 206kts
02-May-19 05:13 36.644867 -109.324204 14 11509ft 206kts
02-May-19 05:14 36.699615 -109.307164 14 11509ft 206kts
02-May-19 05:15 36.752978 -109.290528 14 11510ft 206kts
02-May-19 05:16 36.808560 -109.273174 14 11509ft 206kts
02-May-19 05:17 36.864121 -109.255802 14 11509ft 206kts
02-May-19 05:18 36.919841 -109.238353 14 11509ft 205kts
02-May-19 05:19 36.975714 -109.220832 14 11509ft 205kts
02-May-19 05:20 37.031612 -109.203276 14 11509ft 206kts
02-May-19 05:21 37.087178 -109.185797 14 11509ft 205kts
02-May-19 05:22 37.142715 -109.168300 14 11509ft 205kts
02-May-19 05:23 37.198020 -109.150850 14 11510ft 206kts
02-May-19 05:24 37.253610 -109.133283 14 11509ft 205kts
02-May-19 05:25 37.308880 -109.115792 14 11509ft 206kts
02-May-19 05:26 37.364431 -109.098185 14 11509ft 206kts
02-May-19 05:27 37.420008 -109.080543 14 11509ft 206kts
02-May-19 05:28 37.476040 -109.062729 14 11509ft 206kts
02-May-19 05:29 37.531587 -109.045043 14 11509ft 206kts
02-May-19 05:30 37.587021 -109.027366 14 11509ft 206kts
02-May-19 05:31 37.642504 -109.009646 14 11509ft 206kts
02-May-19 05:31 37.688838 -108.994826 14 11509ft 206kts
02-May-19 05:33 37.753501 -108.974113 14 11509ft 205kts
02-May-19 05:33 37.799846 -108.959245 14 11509ft 206kts
02-May-19 05:35 37.864629 -108.938429 14 11509ft 205kts
02-May-19 05:35 37.910798 -108.923571 14 11509ft 205kts
02-May-19 05:37 37.975460 -108.902729 14 11509ft 205kts
02-May-19 05:37 38.021424 -108.887891 14 11509ft 206kts
02-May-19 05:38 38.076871 -108.869965 14 11509ft 206kts
02-May-19 05:39 38.132446 -108.851971 14 11509ft 206kts
02-May-19 05:40 38.187947 -108.833973 14 11509ft 206kts
02-May-19 05:42 38.252600 -108.812972 14 11510ft 206kts
02-May-19 05:42 38.298670 -108.797983 14 11509ft 206kts
02-May-19 05:43 38.354202 -108.779890 14 11509ft 206kts
02-May-19 05:44 38.409758 -108.761759 14 11500ft 206kts
02-May-19 05:45 38.465211 -108.743636 14 11500ft 206kts
02-May-19 05:46 38.520741 -108.725459 14 11500ft 206kts
02-May-19 05:47 38.576270 -108.707253 14 11500ft 206kts
02-May-19 05:48 38.631197 -108.689213 14 11500ft 206kts
02-May-19 05:49 38.686611 -108.671006 14 11500ft 206kts
02-May-19 05:50 38.741732 -108.652859 14 11500ft 205kts
02-May-19 05:51 38.795660 -108.635079 13 11501ft 206kts
02-May-19 05:52 38.851222 -108.616788 14 11500ft 206kts
02-May-19 05:53 38.904702 -108.594285 28 10437ft 198kts
02-May-19 05:54 38.947818 -108.556536 38 8540ft 177kts
02-May-19 05:55 38.986636 -108.521598 25 6832ft 162kts
02-May-19 05:56 39.023148 -108.496151 25 5686ft 129kts
02-May-19 05:57 39.056408 -108.490628 1 5247ft 123kts
02-May-19 05:58 39.091009 -108.497156 352 5120ft 122kts
02-May-19 05:59 39.119092 -108.515519 303 4879ft 115kts
02-May-19 06:00 39.126352 -108.528816 302 4844ft 17kts
02-May-19 06:01 39.126175 -108.530208 215 4838ft 0kts
02-May-19 06:02 39.124887 -108.531655 304 4827ft 5kts
02-May-19 06:03 39.125005 -108.531858 305 4827ft 0kts
02-May-19 06:04 39.125005 -108.531858 305 4827ft 0kts
02-May-19 06:05 39.125005 -108.531858 305 4827ft 0kts

Navigation Log

Ident Type
Flight plan parsing failed, navigation log unavailable